sensor_id;sensor_type;location;lat;lon;timestamp;P1;durP1;ratioP1;P2;durP2;ratioP2
3689;SDS011;1861;50.240;8.596;2023-10-09T00:00:07;7.90;;;3.17;;
3689;SDS011;1861;50.240;8.596;2023-10-09T00:03:03;7.07;;;2.50;;
3689;SDS011;1861;50.240;8.596;2023-10-09T00:05:33;3.22;;;2.10;;
3689;SDS011;1861;50.240;8.596;2023-10-09T00:08:13;6.90;;;2.30;;
3689;SDS011;1861;50.240;8.596;2023-10-09T00:10:46;7.80;;;2.80;;
3689;SDS011;1861;50.240;8.596;2023-10-09T00:13:21;4.60;;;2.53;;
3689;SDS011;1861;50.240;8.596;2023-10-09T00:15:55;4.53;;;2.50;;
3689;SDS011;1861;50.240;8.596;2023-10-09T00:18:28;8.20;;;3.27;;
3689;SDS011;1861;50.240;8.596;2023-10-09T00:20:56;5.77;;;2.27;;
3689;SDS011;1861;50.240;8.596;2023-10-09T00:23:38;4.70;;;2.13;;
3689;SDS011;1861;50.240;8.596;2023-10-09T00:26:06;5.47;;;2.42;;
3689;SDS011;1861;50.240;8.596;2023-10-09T00:28:47;6.20;;;2.35;;
3689;SDS011;1861;50.240;8.596;2023-10-09T00:31:17;5.90;;;2.58;;
3689;SDS011;1861;50.240;8.596;2023-10-09T00:33:54;3.58;;;2.13;;
3689;SDS011;1861;50.240;8.596;2023-10-09T00:36:27;2.55;;;2.25;;
3689;SDS011;1861;50.240;8.596;2023-10-09T00:38:56;4.17;;;2.50;;
3689;SDS011;1861;50.240;8.596;2023-10-09T00:41:27;2.90;;;1.93;;
3689;SDS011;1861;50.240;8.596;2023-10-09T00:43:57;7.30;;;2.47;;
3689;SDS011;1861;50.240;8.596;2023-10-09T00:46:26;6.23;;;2.63;;
3689;SDS011;1861;50.240;8.596;2023-10-09T00:48:56;2.78;;;2.22;;
3689;SDS011;1861;50.240;8.596;2023-10-09T00:51:28;3.83;;;2.50;;
3689;SDS011;1861;50.240;8.596;2023-10-09T00:54:02;7.50;;;2.73;;
3689;SDS011;1861;50.240;8.596;2023-10-09T00:56:41;5.22;;;2.38;;
3689;SDS011;1861;50.240;8.596;2023-10-09T00:59:13;3.90;;;2.17;;
3689;SDS011;1861;50.240;8.596;2023-10-09T01:01:46;4.60;;;2.50;;
3689;SDS011;1861;50.240;8.596;2023-10-09T01:04:23;5.73;;;2.10;;
3689;SDS011;1861;50.240;8.596;2023-10-09T01:06:53;4.43;;;2.60;;
3689;SDS011;1861;50.240;8.596;2023-10-09T01:09:35;3.00;;;2.33;;
3689;SDS011;1861;50.240;8.596;2023-10-09T01:12:04;10.20;;;3.50;;
3689;SDS011;1861;50.240;8.596;2023-10-09T01:14:35;3.13;;;2.50;;
3689;SDS011;1861;50.240;8.596;2023-10-09T01:17:04;5.63;;;2.30;;
3689;SDS011;1861;50.240;8.596;2023-10-09T01:19:55;7.03;;;2.30;;
3689;SDS011;1861;50.240;8.596;2023-10-09T01:22:25;5.80;;;2.37;;
3689;SDS011;1861;50.240;8.596;2023-10-09T01:24:54;4.07;;;2.33;;
3689;SDS011;1861;50.240;8.596;2023-10-09T01:27:23;5.90;;;2.90;;
3689;SDS011;1861;50.240;8.596;2023-10-09T01:29:59;6.20;;;2.27;;
3689;SDS011;1861;50.240;8.596;2023-10-09T01:32:27;5.30;;;2.03;;
3689;SDS011;1861;50.240;8.596;2023-10-09T01:34:56;15.17;;;2.50;;
3689;SDS011;1861;50.240;8.596;2023-10-09T01:37:24;7.63;;;2.30;;
3689;SDS011;1861;50.240;8.596;2023-10-09T01:39:57;3.43;;;2.20;;
3689;SDS011;1861;50.240;8.596;2023-10-09T01:42:46;6.40;;;2.63;;
3689;SDS011;1861;50.240;8.596;2023-10-09T01:45:14;4.30;;;2.60;;
3689;SDS011;1861;50.240;8.596;2023-10-09T01:47:53;4.80;;;2.67;;
3689;SDS011;1861;50.240;8.596;2023-10-09T01:50:22;2.50;;;1.77;;
3689;SDS011;1861;50.240;8.596;2023-10-09T01:52:58;3.77;;;2.30;;
3689;SDS011;1861;50.240;8.596;2023-10-09T01:55:29;6.97;;;2.83;;
3689;SDS011;1861;50.240;8.596;2023-10-09T01:58:01;6.03;;;2.70;;
3689;SDS011;1861;50.240;8.596;2023-10-09T02:00:33;6.63;;;2.83;;
3689;SDS011;1861;50.240;8.596;2023-10-09T02:03:09;4.97;;;2.80;;
3689;SDS011;1861;50.240;8.596;2023-10-09T02:05:50;5.30;;;2.77;;
3689;SDS011;1861;50.240;8.596;2023-10-09T02:08:26;2.92;;;2.35;;
3689;SDS011;1861;50.240;8.596;2023-10-09T02:11:04;8.33;;;2.77;;
3689;SDS011;1861;50.240;8.596;2023-10-09T02:13:33;6.65;;;3.05;;
3689;SDS011;1861;50.240;8.596;2023-10-09T02:16:02;3.40;;;2.17;;
3689;SDS011;1861;50.240;8.596;2023-10-09T02:18:41;5.33;;;2.27;;
3689;SDS011;1861;50.240;8.596;2023-10-09T02:21:20;9.53;;;2.70;;
3689;SDS011;1861;50.240;8.596;2023-10-09T02:24:01;6.70;;;2.50;;
3689;SDS011;1861;50.240;8.596;2023-10-09T02:26:35;7.50;;;3.00;;
3689;SDS011;1861;50.240;8.596;2023-10-09T02:29:30;4.97;;;2.13;;
3689;SDS011;1861;50.240;8.596;2023-10-09T02:32:01;5.47;;;2.60;;
3689;SDS011;1861;50.240;8.596;2023-10-09T02:34:40;6.23;;;2.67;;
3689;SDS011;1861;50.240;8.596;2023-10-09T02:37:12;6.33;;;2.90;;
3689;SDS011;1861;50.240;8.596;2023-10-09T02:39:40;4.37;;;2.77;;
3689;SDS011;1861;50.240;8.596;2023-10-09T02:42:16;2.73;;;2.17;;
3689;SDS011;1861;50.240;8.596;2023-10-09T02:44:50;4.82;;;2.97;;
3689;SDS011;1861;50.240;8.596;2023-10-09T02:47:19;3.10;;;2.33;;
3689;SDS011;1861;50.240;8.596;2023-10-09T02:49:51;4.77;;;3.37;;
3689;SDS011;1861;50.240;8.596;2023-10-09T02:52:27;5.13;;;2.50;;
3689;SDS011;1861;50.240;8.596;2023-10-09T02:55:06;3.70;;;2.07;;
3689;SDS011;1861;50.240;8.596;2023-10-09T02:57:41;2.53;;;2.10;;
3689;SDS011;1861;50.240;8.596;2023-10-09T03:00:11;9.17;;;2.17;;
3689;SDS011;1861;50.240;8.596;2023-10-09T03:02:46;3.47;;;2.20;;
3689;SDS011;1861;50.240;8.596;2023-10-09T03:05:17;12.43;;;3.03;;
3689;SDS011;1861;50.240;8.596;2023-10-09T03:07:47;3.20;;;2.17;;
3689;SDS011;1861;50.240;8.596;2023-10-09T03:10:15;4.20;;;2.70;;
3689;SDS011;1861;50.240;8.596;2023-10-09T03:12:45;3.97;;;2.13;;
3689;SDS011;1861;50.240;8.596;2023-10-09T03:15:19;4.67;;;2.40;;
3689;SDS011;1861;50.240;8.596;2023-10-09T03:17:48;5.20;;;2.37;;
3689;SDS011;1861;50.240;8.596;2023-10-09T03:20:16;3.80;;;2.37;;
3689;SDS011;1861;50.240;8.596;2023-10-09T03:22:45;3.97;;;2.33;;
3689;SDS011;1861;50.240;8.596;2023-10-09T03:25:14;3.10;;;2.30;;
3689;SDS011;1861;50.240;8.596;2023-10-09T03:27:44;6.80;;;2.80;;
3689;SDS011;1861;50.240;8.596;2023-10-09T03:30:14;5.60;;;2.40;;
3689;SDS011;1861;50.240;8.596;2023-10-09T03:32:50;3.70;;;2.47;;
3689;SDS011;1861;50.240;8.596;2023-10-09T03:35:19;4.63;;;2.63;;
3689;SDS011;1861;50.240;8.596;2023-10-09T03:37:53;4.80;;;2.23;;
3689;SDS011;1861;50.240;8.596;2023-10-09T03:40:26;4.50;;;2.50;;
3689;SDS011;1861;50.240;8.596;2023-10-09T03:42:56;4.97;;;2.97;;
3689;SDS011;1861;50.240;8.596;2023-10-09T03:45:24;5.05;;;2.70;;
3689;SDS011;1861;50.240;8.596;2023-10-09T03:47:54;6.97;;;2.70;;
3689;SDS011;1861;50.240;8.596;2023-10-09T03:50:28;4.10;;;3.10;;
3689;SDS011;1861;50.240;8.596;2023-10-09T03:53:03;4.55;;;2.65;;
3689;SDS011;1861;50.240;8.596;2023-10-09T03:55:34;5.10;;;2.77;;
3689;SDS011;1861;50.240;8.596;2023-10-09T03:58:06;4.10;;;2.73;;
3689;SDS011;1861;50.240;8.596;2023-10-09T04:00:38;4.15;;;3.55;;
3689;SDS011;1861;50.240;8.596;2023-10-09T04:03:13;7.13;;;3.20;;
3689;SDS011;1861;50.240;8.596;2023-10-09T04:05:42;6.53;;;3.37;;
3689;SDS011;1861;50.240;8.596;2023-10-09T04:08:11;7.55;;;3.60;;
3689;SDS011;1861;50.240;8.596;2023-10-09T04:10:46;6.20;;;3.10;;
3689;SDS011;1861;50.240;8.596;2023-10-09T04:13:25;8.23;;;3.47;;
3689;SDS011;1861;50.240;8.596;2023-10-09T04:16:01;9.10;;;3.80;;
3689;SDS011;1861;50.240;8.596;2023-10-09T04:18:37;7.23;;;3.43;;
3689;SDS011;1861;50.240;8.596;2023-10-09T04:21:06;9.70;;;3.50;;
3689;SDS011;1861;50.240;8.596;2023-10-09T04:23:46;10.68;;;3.50;;
3689;SDS011;1861;50.240;8.596;2023-10-09T04:26:36;5.90;;;2.90;;
3689;SDS011;1861;50.240;8.596;2023-10-09T04:29:07;5.27;;;2.70;;
3689;SDS011;1861;50.240;8.596;2023-10-09T04:31:37;8.77;;;4.10;;
3689;SDS011;1861;50.240;8.596;2023-10-09T04:34:05;7.77;;;3.50;;
3689;SDS011;1861;50.240;8.596;2023-10-09T04:36:49;9.07;;;3.90;;
3689;SDS011;1861;50.240;8.596;2023-10-09T04:39:23;5.60;;;3.37;;
3689;SDS011;1861;50.240;8.596;2023-10-09T04:42:03;6.07;;;3.60;;
3689;SDS011;1861;50.240;8.596;2023-10-09T04:44:54;6.50;;;3.20;;
3689;SDS011;1861;50.240;8.596;2023-10-09T04:47:42;4.57;;;3.40;;
3689;SDS011;1861;50.240;8.596;2023-10-09T04:50:24;6.47;;;3.20;;
3689;SDS011;1861;50.240;8.596;2023-10-09T04:53:31;4.33;;;3.03;;
3689;SDS011;1861;50.240;8.596;2023-10-09T04:56:10;5.50;;;3.65;;
3689;SDS011;1861;50.240;8.596;2023-10-09T04:58:42;5.83;;;2.97;;
3689;SDS011;1861;50.240;8.596;2023-10-09T05:01:14;8.10;;;3.23;;
3689;SDS011;1861;50.240;8.596;2023-10-09T05:03:43;6.23;;;3.43;;
3689;SDS011;1861;50.240;8.596;2023-10-09T05:06:12;9.57;;;3.60;;
3689;SDS011;1861;50.240;8.596;2023-10-09T05:09:09;7.13;;;3.30;;
3689;SDS011;1861;50.240;8.596;2023-10-09T05:11:40;7.83;;;3.90;;
3689;SDS011;1861;50.240;8.596;2023-10-09T05:14:36;5.40;;;3.40;;
3689;SDS011;1861;50.240;8.596;2023-10-09T05:17:07;6.83;;;3.33;;
3689;SDS011;1861;50.240;8.596;2023-10-09T05:19:43;3.03;;;2.40;;
3689;SDS011;1861;50.240;8.596;2023-10-09T05:22:29;10.70;;;3.80;;
3689;SDS011;1861;50.240;8.596;2023-10-09T05:25:03;8.87;;;3.50;;
3689;SDS011;1861;50.240;8.596;2023-10-09T05:27:42;5.70;;;3.50;;
3689;SDS011;1861;50.240;8.596;2023-10-09T05:30:17;9.30;;;3.72;;
3689;SDS011;1861;50.240;8.596;2023-10-09T05:33:01;7.85;;;3.00;;
3689;SDS011;1861;50.240;8.596;2023-10-09T05:35:44;6.10;;;3.33;;
3689;SDS011;1861;50.240;8.596;2023-10-09T05:38:32;4.47;;;2.77;;
3689;SDS011;1861;50.240;8.596;2023-10-09T05:41:02;7.30;;;3.57;;
3689;SDS011;1861;50.240;8.596;2023-10-09T05:43:44;7.83;;;3.43;;
3689;SDS011;1861;50.240;8.596;2023-10-09T05:46:30;7.40;;;3.20;;
3689;SDS011;1861;50.240;8.596;2023-10-09T05:49:04;9.55;;;3.42;;
3689;SDS011;1861;50.240;8.596;2023-10-09T05:51:46;15.77;;;4.77;;
3689;SDS011;1861;50.240;8.596;2023-10-09T05:54:20;8.95;;;3.63;;
3689;SDS011;1861;50.240;8.596;2023-10-09T05:57:10;6.93;;;3.57;;
3689;SDS011;1861;50.240;8.596;2023-10-09T06:00:01;8.37;;;4.00;;
3689;SDS011;1861;50.240;8.596;2023-10-09T06:02:47;9.97;;;3.63;;
3689;SDS011;1861;50.240;8.596;2023-10-09T06:05:34;6.67;;;4.10;;
3689;SDS011;1861;50.240;8.596;2023-10-09T06:08:08;6.90;;;3.87;;
3689;SDS011;1861;50.240;8.596;2023-10-09T06:10:39;7.27;;;3.60;;
3689;SDS011;1861;50.240;8.596;2023-10-09T06:13:08;7.20;;;3.97;;
3689;SDS011;1861;50.240;8.596;2023-10-09T06:15:51;6.20;;;3.40;;
3689;SDS011;1861;50.240;8.596;2023-10-09T06:18:39;7.17;;;3.80;;
3689;SDS011;1861;50.240;8.596;2023-10-09T06:21:11;10.00;;;3.70;;
3689;SDS011;1861;50.240;8.596;2023-10-09T06:23:56;8.90;;;4.00;;
3689;SDS011;1861;50.240;8.596;2023-10-09T06:26:36;11.43;;;3.67;;
3689;SDS011;1861;50.240;8.596;2023-10-09T06:29:07;7.53;;;3.93;;
3689;SDS011;1861;50.240;8.596;2023-10-09T06:31:41;11.57;;;5.30;;
3689;SDS011;1861;50.240;8.596;2023-10-09T06:34:28;26.77;;;5.57;;
3689;SDS011;1861;50.240;8.596;2023-10-09T06:37:00;15.00;;;4.20;;
3689;SDS011;1861;50.240;8.596;2023-10-09T06:39:34;6.70;;;4.37;;
3689;SDS011;1861;50.240;8.596;2023-10-09T06:42:19;11.77;;;5.30;;
3689;SDS011;1861;50.240;8.596;2023-10-09T06:45:14;9.97;;;6.03;;
3689;SDS011;1861;50.240;8.596;2023-10-09T06:47:42;8.13;;;4.97;;
3689;SDS011;1861;50.240;8.596;2023-10-09T06:50:23;11.63;;;6.03;;
3689;SDS011;1861;50.240;8.596;2023-10-09T06:52:53;17.57;;;4.50;;
3689;SDS011;1861;50.240;8.596;2023-10-09T06:55:24;10.27;;;5.43;;
3689;SDS011;1861;50.240;8.596;2023-10-09T06:58:01;12.27;;;5.97;;
3689;SDS011;1861;50.240;8.596;2023-10-09T07:00:38;18.10;;;5.20;;
3689;SDS011;1861;50.240;8.596;2023-10-09T07:03:39;14.20;;;5.60;;
3689;SDS011;1861;50.240;8.596;2023-10-09T07:06:19;13.10;;;6.33;;
3689;SDS011;1861;50.240;8.596;2023-10-09T07:09:09;14.00;;;6.57;;
3689;SDS011;1861;50.240;8.596;2023-10-09T07:11:46;11.90;;;6.30;;
3689;SDS011;1861;50.240;8.596;2023-10-09T07:14:24;12.90;;;6.53;;
3689;SDS011;1861;50.240;8.596;2023-10-09T07:17:10;12.10;;;6.30;;
3689;SDS011;1861;50.240;8.596;2023-10-09T07:19:49;21.17;;;8.50;;
3689;SDS011;1861;50.240;8.596;2023-10-09T07:22:35;18.40;;;7.77;;
3689;SDS011;1861;50.240;8.596;2023-10-09T07:25:31;18.20;;;7.30;;
3689;SDS011;1861;50.240;8.596;2023-10-09T07:28:09;17.17;;;7.67;;
3689;SDS011;1861;50.240;8.596;2023-10-09T07:30:56;15.70;;;7.30;;
3689;SDS011;1861;50.240;8.596;2023-10-09T07:33:25;13.20;;;7.27;;
3689;SDS011;1861;50.240;8.596;2023-10-09T07:36:18;10.43;;;6.30;;
3689;SDS011;1861;50.240;8.596;2023-10-09T07:39:02;15.13;;;7.00;;
3689;SDS011;1861;50.240;8.596;2023-10-09T07:41:41;12.97;;;7.20;;
3689;SDS011;1861;50.240;8.596;2023-10-09T07:44:23;13.50;;;7.00;;
3689;SDS011;1861;50.240;8.596;2023-10-09T07:47:09;16.90;;;6.47;;
3689;SDS011;1861;50.240;8.596;2023-10-09T07:49:44;13.60;;;6.90;;
3689;SDS011;1861;50.240;8.596;2023-10-09T07:52:19;12.57;;;6.37;;
3689;SDS011;1861;50.240;8.596;2023-10-09T07:54:52;19.00;;;7.70;;
3689;SDS011;1861;50.240;8.596;2023-10-09T07:57:29;14.68;;;6.35;;
3689;SDS011;1861;50.240;8.596;2023-10-09T08:00:06;13.10;;;6.40;;
3689;SDS011;1861;50.240;8.596;2023-10-09T08:02:54;11.57;;;7.00;;
3689;SDS011;1861;50.240;8.596;2023-10-09T08:05:27;13.47;;;6.60;;
3689;SDS011;1861;50.240;8.596;2023-10-09T08:08:03;19.30;;;6.57;;
3689;SDS011;1861;50.240;8.596;2023-10-09T08:11:08;11.53;;;6.17;;
3689;SDS011;1861;50.240;8.596;2023-10-09T08:13:55;19.07;;;6.27;;
3689;SDS011;1861;50.240;8.596;2023-10-09T08:16:28;12.15;;;6.70;;
3689;SDS011;1861;50.240;8.596;2023-10-09T08:19:07;11.20;;;6.40;;
3689;SDS011;1861;50.240;8.596;2023-10-09T08:21:59;19.65;;;7.00;;
3689;SDS011;1861;50.240;8.596;2023-10-09T08:24:57;12.38;;;7.03;;
3689;SDS011;1861;50.240;8.596;2023-10-09T08:27:26;12.15;;;6.20;;
3689;SDS011;1861;50.240;8.596;2023-10-09T08:30:14;14.15;;;6.43;;
3689;SDS011;1861;50.240;8.596;2023-10-09T08:32:56;13.50;;;6.77;;
3689;SDS011;1861;50.240;8.596;2023-10-09T08:35:33;17.77;;;6.70;;
3689;SDS011;1861;50.240;8.596;2023-10-09T08:38:09;12.20;;;6.07;;
3689;SDS011;1861;50.240;8.596;2023-10-09T08:40:38;15.50;;;6.67;;
3689;SDS011;1861;50.240;8.596;2023-10-09T08:43:08;14.27;;;7.87;;
3689;SDS011;1861;50.240;8.596;2023-10-09T08:45:39;15.70;;;6.70;;
3689;SDS011;1861;50.240;8.596;2023-10-09T08:48:08;18.83;;;7.27;;
3689;SDS011;1861;50.240;8.596;2023-10-09T08:50:42;14.40;;;6.40;;
3689;SDS011;1861;50.240;8.596;2023-10-09T08:53:11;15.47;;;8.00;;
3689;SDS011;1861;50.240;8.596;2023-10-09T08:55:40;12.00;;;6.07;;
3689;SDS011;1861;50.240;8.596;2023-10-09T08:58:09;10.83;;;7.07;;
3689;SDS011;1861;50.240;8.596;2023-10-09T09:00:46;10.27;;;5.88;;
3689;SDS011;1861;50.240;8.596;2023-10-09T09:03:16;15.20;;;6.80;;
3689;SDS011;1861;50.240;8.596;2023-10-09T09:05:47;16.53;;;7.60;;
3689;SDS011;1861;50.240;8.596;2023-10-09T09:08:22;14.57;;;6.55;;
3689;SDS011;1861;50.240;8.596;2023-10-09T09:10:58;13.13;;;6.57;;
3689;SDS011;1861;50.240;8.596;2023-10-09T09:13:39;15.23;;;6.15;;
3689;SDS011;1861;50.240;8.596;2023-10-09T09:16:14;15.13;;;6.43;;
3689;SDS011;1861;50.240;8.596;2023-10-09T09:18:50;13.35;;;6.13;;
3689;SDS011;1861;50.240;8.596;2023-10-09T09:21:27;12.90;;;6.67;;
3689;SDS011;1861;50.240;8.596;2023-10-09T09:23:56;14.83;;;7.00;;
3689;SDS011;1861;50.240;8.596;2023-10-09T09:26:33;13.50;;;5.80;;
3689;SDS011;1861;50.240;8.596;2023-10-09T09:29:04;20.42;;;5.80;;
3689;SDS011;1861;50.240;8.596;2023-10-09T09:31:35;30.00;;;7.50;;
3689;SDS011;1861;50.240;8.596;2023-10-09T09:34:05;13.10;;;6.63;;
3689;SDS011;1861;50.240;8.596;2023-10-09T09:36:49;14.23;;;6.17;;
3689;SDS011;1861;50.240;8.596;2023-10-09T09:39:21;22.52;;;7.55;;
3689;SDS011;1861;50.240;8.596;2023-10-09T09:42:07;21.10;;;6.87;;
3689;SDS011;1861;50.240;8.596;2023-10-09T09:44:40;14.40;;;5.83;;
3689;SDS011;1861;50.240;8.596;2023-10-09T09:47:14;11.82;;;5.30;;
3689;SDS011;1861;50.240;8.596;2023-10-09T09:49:51;12.70;;;6.50;;
3689;SDS011;1861;50.240;8.596;2023-10-09T09:52:28;14.70;;;6.17;;
3689;SDS011;1861;50.240;8.596;2023-10-09T09:55:07;9.55;;;6.22;;
3689;SDS011;1861;50.240;8.596;2023-10-09T09:57:43;14.30;;;6.63;;
3689;SDS011;1861;50.240;8.596;2023-10-09T10:00:18;12.98;;;5.82;;
3689;SDS011;1861;50.240;8.596;2023-10-09T10:03:00;11.10;;;5.83;;
3689;SDS011;1861;50.240;8.596;2023-10-09T10:05:33;19.10;;;7.13;;
3689;SDS011;1861;50.240;8.596;2023-10-09T10:08:04;13.57;;;6.30;;
3689;SDS011;1861;50.240;8.596;2023-10-09T10:10:39;18.77;;;6.95;;
3689;SDS011;1861;50.240;8.596;2023-10-09T10:13:21;13.43;;;5.83;;
3689;SDS011;1861;50.240;8.596;2023-10-09T10:16:28;12.88;;;5.40;;
3689;SDS011;1861;50.240;8.596;2023-10-09T10:19:03;11.45;;;5.35;;
3689;SDS011;1861;50.240;8.596;2023-10-09T10:21:49;13.07;;;6.13;;
3689;SDS011;1861;50.240;8.596;2023-10-09T10:27:21;8.10;;;4.70;;
3689;SDS011;1861;50.240;8.596;2023-10-09T10:33:00;11.10;;;5.30;;
3689;SDS011;1861;50.240;8.596;2023-10-09T10:35:40;11.33;;;5.87;;
3689;SDS011;1861;50.240;8.596;2023-10-09T10:38:26;14.23;;;5.63;;
3689;SDS011;1861;50.240;8.596;2023-10-09T10:41:09;14.30;;;5.30;;
3689;SDS011;1861;50.240;8.596;2023-10-09T10:43:44;20.17;;;6.25;;
3689;SDS011;1861;50.240;8.596;2023-10-09T10:46:22;19.90;;;5.40;;
3689;SDS011;1861;50.240;8.596;2023-10-09T10:49:04;15.43;;;5.67;;
3689;SDS011;1861;50.240;8.596;2023-10-09T10:51:48;12.85;;;5.88;;
3689;SDS011;1861;50.240;8.596;2023-10-09T10:54:28;10.73;;;4.80;;
3689;SDS011;1861;50.240;8.596;2023-10-09T10:57:13;17.25;;;5.72;;
3689;SDS011;1861;50.240;8.596;2023-10-09T10:59:46;19.98;;;5.22;;
3689;SDS011;1861;50.240;8.596;2023-10-09T11:02:16;11.15;;;5.90;;
3689;SDS011;1861;50.240;8.596;2023-10-09T11:04:54;20.40;;;6.07;;
3689;SDS011;1861;50.240;8.596;2023-10-09T11:07:27;11.40;;;4.80;;
3689;SDS011;1861;50.240;8.596;2023-10-09T11:09:55;8.40;;;4.68;;
3689;SDS011;1861;50.240;8.596;2023-10-09T11:12:44;11.60;;;4.30;;
3689;SDS011;1861;50.240;8.596;2023-10-09T11:15:33;16.10;;;4.90;;
3689;SDS011;1861;50.240;8.596;2023-10-09T11:18:11;11.93;;;4.87;;
3689;SDS011;1861;50.240;8.596;2023-10-09T11:20:50;12.38;;;4.72;;
3689;SDS011;1861;50.240;8.596;2023-10-09T11:23:45;10.23;;;4.90;;
3689;SDS011;1861;50.240;8.596;2023-10-09T11:26:25;13.17;;;4.50;;
3689;SDS011;1861;50.240;8.596;2023-10-09T11:29:07;11.43;;;4.70;;
3689;SDS011;1861;50.240;8.596;2023-10-09T11:32:00;11.10;;;5.05;;
3689;SDS011;1861;50.240;8.596;2023-10-09T11:34:28;15.50;;;5.07;;
3689;SDS011;1861;50.240;8.596;2023-10-09T11:36:59;13.75;;;5.80;;
3689;SDS011;1861;50.240;8.596;2023-10-09T11:39:31;13.50;;;5.03;;
3689;SDS011;1861;50.240;8.596;2023-10-09T11:42:02;24.07;;;5.20;;
3689;SDS011;1861;50.240;8.596;2023-10-09T11:44:38;13.90;;;6.07;;
3689;SDS011;1861;50.240;8.596;2023-10-09T11:47:06;13.30;;;4.20;;
3689;SDS011;1861;50.240;8.596;2023-10-09T11:49:53;10.60;;;4.78;;
3689;SDS011;1861;50.240;8.596;2023-10-09T11:55:37;22.23;;;4.38;;
3689;SDS011;1861;50.240;8.596;2023-10-09T11:58:04;11.93;;;4.43;;
3689;SDS011;1861;50.240;8.596;2023-10-09T12:00:33;10.10;;;4.70;;
3689;SDS011;1861;50.240;8.596;2023-10-09T12:03:12;11.68;;;3.95;;
3689;SDS011;1861;50.240;8.596;2023-10-09T12:05:41;19.30;;;5.40;;
3689;SDS011;1861;50.240;8.596;2023-10-09T12:08:12;15.52;;;4.50;;
3689;SDS011;1861;50.240;8.596;2023-10-09T12:10:43;13.88;;;4.10;;
3689;SDS011;1861;50.240;8.596;2023-10-09T12:13:14;16.97;;;6.43;;
3689;SDS011;1861;50.240;8.596;2023-10-09T12:15:43;10.37;;;4.70;;
3689;SDS011;1861;50.240;8.596;2023-10-09T12:18:13;9.57;;;3.53;;
3689;SDS011;1861;50.240;8.596;2023-10-09T12:20:45;11.55;;;4.07;;
3689;SDS011;1861;50.240;8.596;2023-10-09T12:23:17;9.10;;;3.90;;
3689;SDS011;1861;50.240;8.596;2023-10-09T12:25:49;10.13;;;3.97;;
3689;SDS011;1861;50.240;8.596;2023-10-09T12:28:21;12.20;;;3.60;;
3689;SDS011;1861;50.240;8.596;2023-10-09T12:30:49;6.90;;;3.33;;
3689;SDS011;1861;50.240;8.596;2023-10-09T12:33:18;11.57;;;4.85;;
3689;SDS011;1861;50.240;8.596;2023-10-09T12:35:54;9.13;;;4.45;;
3689;SDS011;1861;50.240;8.596;2023-10-09T12:38:26;5.35;;;3.33;;
3689;SDS011;1861;50.240;8.596;2023-10-09T12:41:03;14.18;;;4.63;;
3689;SDS011;1861;50.240;8.596;2023-10-09T12:43:35;8.88;;;3.92;;
3689;SDS011;1861;50.240;8.596;2023-10-09T12:46:06;15.97;;;3.97;;
3689;SDS011;1861;50.240;8.596;2023-10-09T12:48:34;12.93;;;4.83;;
3689;SDS011;1861;50.240;8.596;2023-10-09T12:51:04;9.68;;;4.18;;
3689;SDS011;1861;50.240;8.596;2023-10-09T12:53:33;50.38;;;4.90;;
3689;SDS011;1861;50.240;8.596;2023-10-09T12:56:09;11.95;;;4.18;;
3689;SDS011;1861;50.240;8.596;2023-10-09T12:58:38;9.40;;;3.58;;
3689;SDS011;1861;50.240;8.596;2023-10-09T13:01:09;10.75;;;4.22;;
3689;SDS011;1861;50.240;8.596;2023-10-09T13:03:38;7.47;;;3.47;;
3689;SDS011;1861;50.240;8.596;2023-10-09T13:06:06;10.63;;;3.63;;
3689;SDS011;1861;50.240;8.596;2023-10-09T13:08:37;6.88;;;2.97;;
3689;SDS011;1861;50.240;8.596;2023-10-09T13:11:09;7.25;;;3.80;;
3689;SDS011;1861;50.240;8.596;2023-10-09T13:13:39;8.33;;;4.00;;
3689;SDS011;1861;50.240;8.596;2023-10-09T13:16:09;7.38;;;3.25;;
3689;SDS011;1861;50.240;8.596;2023-10-09T13:18:40;6.03;;;3.22;;
3689;SDS011;1861;50.240;8.596;2023-10-09T13:21:17;8.68;;;3.08;;
3689;SDS011;1861;50.240;8.596;2023-10-09T13:23:46;9.32;;;3.25;;
3689;SDS011;1861;50.240;8.596;2023-10-09T13:26:17;7.15;;;3.38;;
3689;SDS011;1861;50.240;8.596;2023-10-09T13:28:59;7.82;;;2.97;;
3689;SDS011;1861;50.240;8.596;2023-10-09T13:31:29;5.97;;;3.10;;
3689;SDS011;1861;50.240;8.596;2023-10-09T13:34:01;7.63;;;3.17;;
3689;SDS011;1861;50.240;8.596;2023-10-09T13:36:30;7.10;;;3.08;;
3689;SDS011;1861;50.240;8.596;2023-10-09T13:38:59;6.85;;;3.15;;
3689;SDS011;1861;50.240;8.596;2023-10-09T13:41:48;7.78;;;2.92;;
3689;SDS011;1861;50.240;8.596;2023-10-09T13:44:24;5.20;;;2.73;;
3689;SDS011;1861;50.240;8.596;2023-10-09T13:46:54;8.27;;;4.10;;
3689;SDS011;1861;50.240;8.596;2023-10-09T13:49:23;19.80;;;5.23;;
3689;SDS011;1861;50.240;8.596;2023-10-09T13:51:57;12.38;;;3.83;;
3689;SDS011;1861;50.240;8.596;2023-10-09T13:54:26;10.38;;;3.20;;
3689;SDS011;1861;50.240;8.596;2023-10-09T13:57:08;7.50;;;2.80;;
3689;SDS011;1861;50.240;8.596;2023-10-09T13:59:37;7.03;;;3.40;;
3689;SDS011;1861;50.240;8.596;2023-10-09T14:02:10;6.95;;;3.17;;
3689;SDS011;1861;50.240;8.596;2023-10-09T14:04:45;15.15;;;3.58;;
3689;SDS011;1861;50.240;8.596;2023-10-09T14:07:14;12.38;;;4.30;;
3689;SDS011;1861;50.240;8.596;2023-10-09T14:09:44;5.85;;;3.05;;
3689;SDS011;1861;50.240;8.596;2023-10-09T14:12:23;9.15;;;3.65;;
3689;SDS011;1861;50.240;8.596;2023-10-09T14:14:56;8.77;;;3.70;;
3689;SDS011;1861;50.240;8.596;2023-10-09T14:17:24;8.88;;;3.30;;
3689;SDS011;1861;50.240;8.596;2023-10-09T14:19:55;7.82;;;3.22;;
3689;SDS011;1861;50.240;8.596;2023-10-09T14:22:44;7.32;;;3.00;;
3689;SDS011;1861;50.240;8.596;2023-10-09T14:25:13;9.00;;;3.30;;
3689;SDS011;1861;50.240;8.596;2023-10-09T14:27:48;7.00;;;3.38;;
3689;SDS011;1861;50.240;8.596;2023-10-09T14:30:19;8.02;;;3.40;;
3689;SDS011;1861;50.240;8.596;2023-10-09T14:32:57;7.10;;;3.30;;
3689;SDS011;1861;50.240;8.596;2023-10-09T14:35:28;13.90;;;3.78;;
3689;SDS011;1861;50.240;8.596;2023-10-09T14:38:00;6.65;;;3.15;;
3689;SDS011;1861;50.240;8.596;2023-10-09T14:40:31;8.93;;;4.25;;
3689;SDS011;1861;50.240;8.596;2023-10-09T14:43:01;10.87;;;3.47;;
3689;SDS011;1861;50.240;8.596;2023-10-09T14:45:29;7.15;;;3.55;;
3689;SDS011;1861;50.240;8.596;2023-10-09T14:47:58;10.33;;;3.20;;
3689;SDS011;1861;50.240;8.596;2023-10-09T14:50:27;11.27;;;2.83;;
3689;SDS011;1861;50.240;8.596;2023-10-09T14:52:55;7.25;;;3.70;;
3689;SDS011;1861;50.240;8.596;2023-10-09T14:55:27;7.75;;;3.00;;
3689;SDS011;1861;50.240;8.596;2023-10-09T14:57:58;6.35;;;3.35;;
3689;SDS011;1861;50.240;8.596;2023-10-09T15:00:27;12.85;;;3.65;;
3689;SDS011;1861;50.240;8.596;2023-10-09T15:03:00;7.40;;;3.20;;
3689;SDS011;1861;50.240;8.596;2023-10-09T15:05:30;7.32;;;2.75;;
3689;SDS011;1861;50.240;8.596;2023-10-09T15:08:02;6.32;;;3.33;;
3689;SDS011;1861;50.240;8.596;2023-10-09T15:10:30;9.35;;;4.10;;
3689;SDS011;1861;50.240;8.596;2023-10-09T15:12:59;8.40;;;3.70;;
3689;SDS011;1861;50.240;8.596;2023-10-09T15:15:28;13.20;;;3.80;;
3689;SDS011;1861;50.240;8.596;2023-10-09T15:17:57;6.85;;;3.13;;
3689;SDS011;1861;50.240;8.596;2023-10-09T15:20:25;7.57;;;4.13;;
3689;SDS011;1861;50.240;8.596;2023-10-09T15:22:53;9.02;;;3.97;;
3689;SDS011;1861;50.240;8.596;2023-10-09T15:25:22;9.13;;;3.95;;
3689;SDS011;1861;50.240;8.596;2023-10-09T15:27:50;13.20;;;5.03;;
3689;SDS011;1861;50.240;8.596;2023-10-09T15:30:18;12.18;;;4.22;;
3689;SDS011;1861;50.240;8.596;2023-10-09T15:32:47;11.82;;;4.25;;
3689;SDS011;1861;50.240;8.596;2023-10-09T15:35:16;9.65;;;3.60;;
3689;SDS011;1861;50.240;8.596;2023-10-09T15:37:45;7.35;;;4.18;;
3689;SDS011;1861;50.240;8.596;2023-10-09T15:40:13;6.63;;;3.75;;
3689;SDS011;1861;50.240;8.596;2023-10-09T15:42:44;9.65;;;3.63;;
3689;SDS011;1861;50.240;8.596;2023-10-09T15:45:16;9.95;;;4.35;;
3689;SDS011;1861;50.240;8.596;2023-10-09T15:47:49;10.30;;;3.80;;
3689;SDS011;1861;50.240;8.596;2023-10-09T15:50:19;9.82;;;3.50;;
3689;SDS011;1861;50.240;8.596;2023-10-09T15:52:51;7.40;;;3.75;;
3689;SDS011;1861;50.240;8.596;2023-10-09T15:55:20;12.15;;;3.72;;
3689;SDS011;1861;50.240;8.596;2023-10-09T15:57:51;8.82;;;4.00;;
3689;SDS011;1861;50.240;8.596;2023-10-09T16:00:21;4.90;;;3.13;;
3689;SDS011;1861;50.240;8.596;2023-10-09T16:02:56;11.33;;;3.90;;
3689;SDS011;1861;50.240;8.596;2023-10-09T16:05:27;14.20;;;3.55;;
3689;SDS011;1861;50.240;8.596;2023-10-09T16:07:57;5.47;;;2.85;;